Time;durP1;ratioP1;P1;durP2;ratioP2;P2;SDS_P1;SDS_P2;PMS_P1;PMS_P2;Temp;Humidity;BMP_temperature;BMP_pressure;BME280_temperature;BME280_humidity;BME280_pressure;Samples;Min_cycle;Max_cycle;Signal;HPM_P1;HPM_P2
2021/01/21 00:02:07;;;;;;;8.40;1.60;;;;;;;;;;5110662;22;20044;-77
2021/01/21 00:04:34;;;;;;;8.10;1.83;;;;;;;;;;5091182;28;20040;-76
2021/01/21 00:07:01;;;;;;;6.13;1.25;;;;;;;;;;5094396;28;20043;-77
2021/01/21 00:09:28;;;;;;;6.50;1.42;;;;;;;;;;5093363;28;20035;-77
2021/01/21 00:11:57;;;;;;;8.38;1.00;;;;;;;;;;5092820;28;20109;-77
2021/01/21 00:14:25;;;;;;;6.93;1.40;;;;;;;;;;5091172;28;20027;-77
2021/01/21 00:16:52;;;;;;;7.07;1.30;;;;;;;;;;5096324;28;20039;-77
2021/01/21 00:19:19;;;;;;;4.05;1.08;;;;;;;;;;5075162;28;20028;-78
2021/01/21 00:21:46;;;;;;;9.23;1.75;;;;;;;;;;5093945;28;20103;-77
2021/01/21 00:24:13;;;;;;;6.68;1.70;;;;;;;;;;5091884;28;20047;-77
2021/01/21 00:26:40;;;;;;;6.85;1.15;;;;;;;;;;5092868;28;20024;-77
2021/01/21 00:29:07;;;;;;;7.45;1.27;;;;;;;;;;5091889;28;20035;-77
2021/01/21 00:31:34;;;;;;;7.57;1.92;;;;;;;;;;5092751;28;20027;-77
2021/01/21 00:34:02;;;;;;;7.75;1.83;;;;;;;;;;5091889;28;20032;-77
2021/01/21 00:36:29;;;;;;;7.93;2.03;;;;;;;;;;5093481;28;20024;-77
2021/01/21 00:38:56;;;;;;;12.00;2.58;;;;;;;;;;5089190;28;20032;-77
2021/01/21 00:41:23;;;;;;;8.15;1.75;;;;;;;;;;5093623;28;20515;-76
2021/01/21 00:43:50;;;;;;;6.65;1.25;;;;;;;;;;5088175;28;20044;-77
2021/01/21 00:46:17;;;;;;;7.15;1.70;;;;;;;;;;5092179;28;20031;-77
2021/01/21 00:48:45;;;;;;;7.70;1.45;;;;;;;;;;5091961;28;20035;-77
2021/01/21 00:51:12;;;;;;;6.13;1.95;;;;;;;;;;5093139;28;20059;-77
2021/01/21 00:53:39;;;;;;;8.65;1.60;;;;;;;;;;5089420;28;20454;-77
2021/01/21 00:56:07;;;;;;;10.00;1.80;;;;;;;;;;5074545;28;20081;-77
2021/01/21 00:58:34;;;;;;;7.43;1.45;;;;;;;;;;5101666;28;20099;-77
2021/01/21 01:01:01;;;;;;;10.73;2.17;;;;;;;;;;5094945;28;20505;-77
2021/01/21 01:03:28;;;;;;;8.85;1.80;;;;;;;;;;5113402;22;20570;-77
2021/01/21 01:05:55;;;;;;;10.40;1.83;;;;;;;;;;5106487;22;20048;-77
2021/01/21 01:08:22;;;;;;;6.65;1.73;;;;;;;;;;5112634;27;20415;-77
2021/01/21 01:10:50;;;;;;;12.95;2.72;;;;;;;;;;5102388;22;20056;-77
2021/01/21 01:13:17;;;;;;;9.25;2.05;;;;;;;;;;5070656;28;20063;-77
2021/01/21 01:15:44;;;;;;;6.50;1.77;;;;;;;;;;5073316;28;20501;-77
2021/01/21 01:18:11;;;;;;;8.65;1.60;;;;;;;;;;5068679;28;20028;-77
2021/01/21 01:20:38;;;;;;;9.05;1.90;;;;;;;;;;5063376;22;20064;-77
2021/01/21 01:23:05;;;;;;;7.13;2.05;;;;;;;;;;5051574;28;20029;-76
2021/01/21 01:25:33;;;;;;;7.28;1.70;;;;;;;;;;5053219;28;20107;-77
2021/01/21 01:28:01;;;;;;;6.80;1.50;;;;;;;;;;5048947;28;20029;-77
2021/01/21 01:30:28;;;;;;;7.57;1.58;;;;;;;;;;5053029;28;20082;-77
2021/01/21 01:32:55;;;;;;;6.95;0.98;;;;;;;;;;5048182;28;20150;-77
2021/01/21 01:35:22;;;;;;;7.70;1.30;;;;;;;;;;5070369;22;20028;-77
2021/01/21 01:37:49;;;;;;;15.02;2.13;;;;;;;;;;5091033;28;20039;-77
2021/01/21 01:40:16;;;;;;;7.75;1.55;;;;;;;;;;5093417;28;20038;-77
2021/01/21 01:42:44;;;;;;;9.32;2.15;;;;;;;;;;5090109;28;20111;-77
2021/01/21 01:45:12;;;;;;;9.20;1.95;;;;;;;;;;5091514;28;20040;-78
2021/01/21 01:47:41;;;;;;;9.05;1.85;;;;;;;;;;5090750;28;20538;-78
2021/01/21 01:50:09;;;;;;;8.55;1.40;;;;;;;;;;5093186;28;20118;-76
2021/01/21 01:52:43;;;;;;;9.18;1.70;;;;;;;;;;5090787;28;20020;-80
2021/01/21 01:55:12;;;;;;;7.32;1.52;;;;;;;;;;5081529;28;20024;-77
2021/01/21 01:57:39;;;;;;;6.55;1.15;;;;;;;;;;5090757;28;20032;-77
2021/01/21 02:00:07;;;;;;;10.75;2.20;;;;;;;;;;5091609;28;20498;-77
2021/01/21 02:02:34;;;;;;;6.85;1.65;;;;;;;;;;5072340;28;20513;-77
2021/01/21 02:05:02;;;;;;;8.23;2.50;;;;;;;;;;5091229;28;20060;-78
2021/01/21 02:07:29;;;;;;;7.65;1.92;;;;;;;;;;5088722;28;20012;-78
2021/01/21 02:09:57;;;;;;;8.30;2.30;;;;;;;;;;5089534;22;20110;-78
2021/01/21 02:12:24;;;;;;;7.05;1.85;;;;;;;;;;5056621;28;20773;-79
2021/01/21 02:14:56;;;;;;;11.52;2.08;;;;;;;;;;5060998;28;20375;-79
2021/01/21 02:17:33;;;;;;;9.45;2.20;;;;;;;;;;5062932;28;20035;-79
2021/01/21 02:20:18;;;;;;;10.48;2.20;;;;;;;;;;5064577;28;20078;-78
2021/01/21 02:22:48;;;;;;;5.93;1.52;;;;;;;;;;5061963;28;20056;-79
2021/01/21 02:25:16;;;;;;;8.35;2.17;;;;;;;;;;5067696;28;20054;-79
2021/01/21 02:27:56;;;;;;;9.18;2.08;;;;;;;;;;5066309;28;20123;-79
2021/01/21 02:30:33;;;;;;;11.57;2.03;;;;;;;;;;5068296;28;20116;-79
2021/01/21 02:33:14;;;;;;;5.47;1.30;;;;;;;;;;5061393;28;20024;-79
2021/01/21 02:35:45;;;;;;;11.00;2.10;;;;;;;;;;5060679;28;20480;-79
2021/01/21 02:38:13;;;;;;;7.50;1.63;;;;;;;;;;5046846;28;20543;-78
2021/01/21 02:40:41;;;;;;;9.15;1.95;;;;;;;;;;5068205;28;20112;-78
2021/01/21 02:43:11;;;;;;;6.72;1.58;;;;;;;;;;5062162;28;20118;-78
2021/01/21 02:45:39;;;;;;;8.25;1.73;;;;;;;;;;5058418;28;20513;-77
2021/01/21 02:48:07;;;;;;;10.15;2.10;;;;;;;;;;5059192;28;20020;-77
2021/01/21 02:50:34;;;;;;;11.13;2.30;;;;;;;;;;5061223;28;20060;-77
2021/01/21 02:53:02;;;;;;;10.05;2.20;;;;;;;;;;5044479;28;20029;-76
2021/01/21 02:55:29;;;;;;;9.40;1.67;;;;;;;;;;5068270;28;20029;-75
2021/01/21 02:58:05;;;;;;;8.88;1.65;;;;;;;;;;5059320;28;20028;-75
2021/01/21 03:00:34;;;;;;;5.90;1.17;;;;;;;;;;5068650;28;20112;-75
2021/01/21 03:03:01;;;;;;;6.07;1.63;;;;;;;;;;5056830;28;20029;-75
2021/01/21 03:05:29;;;;;;;8.88;1.88;;;;;;;;;;5071630;28;20265;-75
2021/01/21 03:07:56;;;;;;;12.43;1.98;;;;;;;;;;5064532;28;20025;-76
2021/01/21 03:10:23;;;;;;;7.60;1.70;;;;;;;;;;5065133;28;20049;-75
2021/01/21 03:12:58;;;;;;;9.05;1.65;;;;;;;;;;5121464;22;20049;-77
2021/01/21 03:15:26;;;;;;;5.90;1.17;;;;;;;;;;5086085;22;20139;-76
2021/01/21 03:17:54;;;;;;;7.15;1.35;;;;;;;;;;5069132;28;20040;-76
2021/01/21 03:20:21;;;;;;;9.18;1.67;;;;;;;;;;5072190;22;20044;-75
2021/01/21 03:22:48;;;;;;;7.93;1.75;;;;;;;;;;5069942;28;20038;-76
2021/01/21 03:25:15;;;;;;;5.93;1.25;;;;;;;;;;5053252;28;20044;-75
2021/01/21 03:27:42;;;;;;;10.35;2.30;;;;;;;;;;5068499;28;20142;-75
2021/01/21 03:30:10;;;;;;;6.65;1.38;;;;;;;;;;5075429;22;20044;-75
2021/01/21 03:32:37;;;;;;;5.32;1.42;;;;;;;;;;5066577;28;20029;-76
2021/01/21 03:35:05;;;;;;;10.65;2.00;;;;;;;;;;5051337;28;20028;-75
2021/01/21 03:37:33;;;;;;;8.73;1.77;;;;;;;;;;5057911;28;20037;-76
2021/01/21 03:40:00;;;;;;;4.72;1.20;;;;;;;;;;5070775;28;20043;-76
2021/01/21 03:42:27;;;;;;;7.43;1.63;;;;;;;;;;5068598;28;20039;-75
2021/01/21 03:44:54;;;;;;;7.35;1.27;;;;;;;;;;5078026;22;20140;-75
2021/01/21 03:47:21;;;;;;;10.05;2.05;;;;;;;;;;5029082;28;20056;-78
2021/01/21 03:49:48;;;;;;;4.45;1.52;;;;;;;;;;5031061;28;20168;-77
2021/01/21 03:52:15;;;;;;;8.35;1.50;;;;;;;;;;5010831;28;20485;-75
2021/01/21 03:54:42;;;;;;;7.85;2.05;;;;;;;;;;4992090;28;20033;-75
2021/01/21 03:57:10;;;;;;;6.13;2.08;;;;;;;;;;5009221;28;20032;-76
2021/01/21 03:59:37;;;;;;;8.10;1.55;;;;;;;;;;5009025;28;20030;-76
2021/01/21 04:02:04;;;;;;;7.70;1.85;;;;;;;;;;5014128;28;20433;-75
2021/01/21 04:04:31;;;;;;;7.13;1.45;;;;;;;;;;5010590;28;20034;-75
2021/01/21 04:06:58;;;;;;;4.97;1.35;;;;;;;;;;5013755;28;20030;-75
2021/01/21 04:09:25;;;;;;;5.10;1.70;;;;;;;;;;4998778;28;20434;-76
2021/01/21 04:11:55;;;;;;;8.88;2.00;;;;;;;;;;5002009;28;20100;-76
2021/01/21 04:14:22;;;;;;;8.23;1.63;;;;;;;;;;5005896;28;20349;-76
2021/01/21 04:16:49;;;;;;;7.50;2.00;;;;;;;;;;5014360;28;20514;-76
2021/01/21 04:19:16;;;;;;;6.88;1.15;;;;;;;;;;5067486;22;20067;-76
2021/01/21 04:21:43;;;;;;;8.43;1.70;;;;;;;;;;5054195;28;20079;-76
2021/01/21 04:24:11;;;;;;;9.35;1.83;;;;;;;;;;5051815;28;20061;-77
2021/01/21 04:26:38;;;;;;;5.68;1.63;;;;;;;;;;5052357;28;20025;-77
2021/01/21 04:29:05;;;;;;;5.28;1.50;;;;;;;;;;5048202;28;20461;-75
2021/01/21 04:31:32;;;;;;;4.60;1.33;;;;;;;;;;5041808;28;20048;-76
2021/01/21 04:33:59;;;;;;;9.27;1.52;;;;;;;;;;5051787;28;20029;-76
2021/01/21 04:36:26;;;;;;;6.32;2.00;;;;;;;;;;5046006;28;20017;-76
2021/01/21 04:38:54;;;;;;;6.28;2.08;;;;;;;;;;5046679;28;20048;-76
2021/01/21 04:41:21;;;;;;;4.22;1.08;;;;;;;;;;5050073;28;20021;-76
2021/01/21 04:43:48;;;;;;;4.75;1.52;;;;;;;;;;5045230;28;20095;-75
2021/01/21 04:46:15;;;;;;;7.20;1.95;;;;;;;;;;5051539;28;20084;-75
2021/01/21 04:48:43;;;;;;;6.70;1.60;;;;;;;;;;5050465;28;20492;-76
2021/01/21 04:51:10;;;;;;;5.57;1.70;;;;;;;;;;5051171;28;20447;-75
2021/01/21 04:53:39;;;;;;;3.78;1.15;;;;;;;;;;5046467;28;20045;-75
2021/01/21 04:56:07;;;;;;;6.90;1.70;;;;;;;;;;5049069;28;20182;-76
2021/01/21 04:58:34;;;;;;;4.60;1.02;;;;;;;;;;5051288;28;20039;-74
2021/01/21 05:01:02;;;;;;;7.35;1.85;;;;;;;;;;5058553;28;20100;-76
2021/01/21 05:03:29;;;;;;;4.78;1.30;;;;;;;;;;5043191;28;20029;-77
2021/01/21 05:05:57;;;;;;;9.18;1.80;;;;;;;;;;5047627;28;20036;-76
2021/01/21 05:08:24;;;;;;;10.45;1.40;;;;;;;;;;5048862;28;20021;-75
2021/01/21 05:10:52;;;;;;;7.90;1.40;;;;;;;;;;5044724;28;20103;-75
2021/01/21 05:13:19;;;;;;;7.25;1.73;;;;;;;;;;5043394;28;20021;-74
2021/01/21 05:15:46;;;;;;;8.90;1.52;;;;;;;;;;5035906;28;20036;-76
2021/01/21 05:18:14;;;;;;;9.48;2.05;;;;;;;;;;5048346;28;20037;-75
2021/01/21 05:20:41;;;;;;;9.43;1.40;;;;;;;;;;5046407;28;20028;-75
2021/01/21 05:23:08;;;;;;;7.63;1.60;;;;;;;;;;5097487;22;20052;-74
2021/01/21 05:25:35;;;;;;;8.88;1.50;;;;;;;;;;5085061;28;20099;-75
2021/01/21 05:28:06;;;;;;;7.85;1.35;;;;;;;;;;5096216;22;20555;-74
2021/01/21 05:30:34;;;;;;;10.77;1.13;;;;;;;;;;5098815;28;20055;-75
2021/01/21 05:33:02;;;;;;;6.32;1.05;;;;;;;;;;5089375;28;20415;-75
2021/01/21 05:35:29;;;;;;;3.90;1.08;;;;;;;;;;5089997;28;20023;-74
2021/01/21 05:37:59;;;;;;;7.70;1.40;;;;;;;;;;5089873;28;20024;-74
2021/01/21 05:40:28;;;;;;;5.25;1.30;;;;;;;;;;5084636;22;20048;-75
2021/01/21 05:42:56;;;;;;;7.85;1.77;;;;;;;;;;5069229;28;20046;-74
2021/01/21 05:45:24;;;;;;;8.93;1.88;;;;;;;;;;5066817;28;20033;-75
2021/01/21 05:47:55;;;;;;;7.03;1.75;;;;;;;;;;5065595;28;20044;-75
2021/01/21 05:50:25;;;;;;;8.85;1.35;;;;;;;;;;5068296;22;20131;-74
2021/01/21 05:52:54;;;;;;;7.43;1.50;;;;;;;;;;5045474;28;20017;-75
2021/01/21 05:55:25;;;;;;;7.25;1.75;;;;;;;;;;5044702;28;20025;-76
2021/01/21 05:57:52;;;;;;;5.15;1.25;;;;;;;;;;5072836;22;20067;-76
2021/01/21 06:00:20;;;;;;;7.90;1.60;;;;;;;;;;5067779;28;20060;-76
2021/01/21 06:02:50;;;;;;;11.25;1.88;;;;;;;;;;5059130;28;20028;-74
2021/01/21 06:05:24;;;;;;;9.45;1.83;;;;;;;;;;5047786;28;20084;-75
2021/01/21 06:07:52;;;;;;;7.60;1.40;;;;;;;;;;5062509;28;20024;-76
2021/01/21 06:10:20;;;;;;;8.38;2.03;;;;;;;;;;5066516;28;20032;-74
2021/01/21 06:12:48;;;;;;;7.75;1.85;;;;;;;;;;5066520;28;20027;-74
2021/01/21 06:15:15;;;;;;;5.68;1.88;;;;;;;;;;5046807;28;20035;-74
2021/01/21 06:17:43;;;;;;;6.90;1.52;;;;;;;;;;5066948;28;20162;-73
2021/01/21 06:20:11;;;;;;;9.02;1.83;;;;;;;;;;5068555;28;20025;-72
2021/01/21 06:22:42;;;;;;;7.45;1.63;;;;;;;;;;5066948;28;20049;-73
2021/01/21 06:25:12;;;;;;;10.57;2.30;;;;;;;;;;5067893;28;20051;-73
2021/01/21 06:27:40;;;;;;;6.18;1.63;;;;;;;;;;5064950;28;20027;-72
2021/01/21 06:30:09;;;;;;;8.07;1.20;;;;;;;;;;5068951;28;20032;-73
2021/01/21 06:32:40;;;;;;;6.70;1.40;;;;;;;;;;5061456;28;20023;-72
2021/01/21 06:35:08;;;;;;;4.30;1.42;;;;;;;;;;5068631;28;20115;-72
2021/01/21 06:37:38;;;;;;;14.25;1.90;;;;;;;;;;5063528;28;20048;-72
2021/01/21 06:40:09;;;;;;;7.85;1.88;;;;;;;;;;5061509;28;20020;-72
2021/01/21 06:42:37;;;;;;;6.53;1.58;;;;;;;;;;5065714;28;20146;-75
2021/01/21 06:45:08;;;;;;;6.05;1.23;;;;;;;;;;5104285;22;20060;-76
2021/01/21 06:47:35;;;;;;;8.45;1.55;;;;;;;;;;5089666;28;20098;-77
2021/01/21 06:50:06;;;;;;;6.85;1.02;;;;;;;;;;5091784;28;20032;-76
2021/01/21 06:52:37;;;;;;;6.72;1.05;;;;;;;;;;5090815;28;20077;-76
2021/01/21 06:55:05;;;;;;;8.68;2.08;;;;;;;;;;5092342;28;20031;-73
2021/01/21 06:57:35;;;;;;;8.50;1.48;;;;;;;;;;5090543;28;20020;-73
2021/01/21 07:00:03;;;;;;;14.70;1.45;;;;;;;;;;5091921;28;20518;-74
2021/01/21 07:02:49;;;;;;;19.48;2.95;;;;;;;;;;5090439;28;20035;-75
2021/01/21 07:05:22;;;;;;;29.02;4.50;;;;;;;;;;5086320;28;20071;-73
2021/01/21 07:08:04;;;;;;;8.63;1.90;;;;;;;;;;5076260;28;20511;-75
2021/01/21 07:10:37;;;;;;;8.52;1.00;;;;;;;;;;5097756;28;20081;-73
2021/01/21 07:13:09;;;;;;;6.40;1.20;;;;;;;;;;5094866;28;20050;-76
2021/01/21 07:15:37;;;;;;;11.80;1.10;;;;;;;;;;5101777;28;20256;-76
2021/01/21 07:18:05;;;;;;;6.05;1.00;;;;;;;;;;5113616;22;20101;-78
2021/01/21 07:20:33;;;;;;;7.35;1.67;;;;;;;;;;5111433;28;20387;-77
2021/01/21 07:23:07;;;;;;;7.85;1.38;;;;;;;;;;5102291;28;20435;-76
2021/01/21 07:25:35;;;;;;;7.18;1.75;;;;;;;;;;5104833;28;20031;-77
2021/01/21 07:28:09;;;;;;;6.95;1.48;;;;;;;;;;5088466;28;20024;-78
2021/01/21 07:30:39;;;;;;;12.80;2.15;;;;;;;;;;5095348;28;20430;-77
2021/01/21 07:33:21;;;;;;;5.80;1.40;;;;;;;;;;5097716;28;20024;-78
2021/01/21 07:35:49;;;;;;;6.13;1.42;;;;;;;;;;5094116;28;20070;-78
2021/01/21 07:38:34;;;;;;;8.90;1.30;;;;;;;;;;5094959;28;20476;-80
2021/01/21 07:41:01;;;;;;;12.15;1.30;;;;;;;;;;5094956;28;20063;-78
2021/01/21 07:43:48;;;;;;;9.30;1.80;;;;;;;;;;5081976;28;20040;-78
2021/01/21 07:46:25;;;;;;;8.98;1.90;;;;;;;;;;5078288;28;20190;-77
2021/01/21 07:49:12;;;;;;;7.38;1.40;;;;;;;;;;5080954;28;20127;-78
2021/01/21 07:51:39;;;;;;;7.90;2.38;;;;;;;;;;5094437;28;20078;-78
2021/01/21 07:54:06;;;;;;;7.65;1.48;;;;;;;;;;5082275;28;20488;-79
2021/01/21 07:56:33;;;;;;;7.57;1.40;;;;;;;;;;5094911;28;20031;-79
2021/01/21 07:59:01;;;;;;;8.50;1.60;;;;;;;;;;5088782;28;20048;-79
2021/01/21 08:01:28;;;;;;;12.45;1.63;;;;;;;;;;5074964;28;20450;-77
2021/01/21 08:03:55;;;;;;;12.40;1.70;;;;;;;;;;5075538;28;20482;-78
2021/01/21 08:06:22;;;;;;;7.75;1.65;;;;;;;;;;5093172;28;20059;-79
2021/01/21 08:08:50;;;;;;;8.82;1.92;;;;;;;;;;5090178;28;20016;-79
2021/01/21 08:11:18;;;;;;;10.23;2.03;;;;;;;;;;5074868;28;20028;-78
2021/01/21 08:13:48;;;;;;;6.68;1.83;;;;;;;;;;5074941;28;20473;-77
2021/01/21 08:16:17;;;;;;;10.52;1.65;;;;;;;;;;5074941;28;20200;-77
2021/01/21 08:18:45;;;;;;;15.90;3.15;;;;;;;;;;5111873;22;20049;-77
2021/01/21 08:21:19;;;;;;;14.68;2.70;;;;;;;;;;5062852;22;20048;-77
2021/01/21 08:23:53;;;;;;;14.30;1.95;;;;;;;;;;5080556;28;20155;-78
2021/01/21 08:26:20;;;;;;;10.57;3.15;;;;;;;;;;5078235;22;20049;-77
2021/01/21 08:28:47;;;;;;;8.52;1.85;;;;;;;;;;5051670;28;20093;-78
2021/01/21 08:31:15;;;;;;;8.90;1.65;;;;;;;;;;5040517;28;20489;-82
2021/01/21 08:33:42;;;;;;;6.80;1.38;;;;;;;;;;5054051;22;20060;-77
2021/01/21 08:36:12;;;;;;;11.88;1.70;;;;;;;;;;5048421;28;20397;-78
2021/01/21 08:38:42;;;;;;;12.43;2.40;;;;;;;;;;5051418;28;20509;-77
2021/01/21 08:41:12;;;;;;;10.95;1.67;;;;;;;;;;5034339;28;20433;-78
2021/01/21 08:43:40;;;;;;;5.93;1.42;;;;;;;;;;5048776;28;20590;-77
2021/01/21 08:46:14;;;;;;;15.00;2.22;;;;;;;;;;5034353;28;20101;-78
2021/01/21 08:48:42;;;;;;;7.32;1.40;;;;;;;;;;5032423;28;20021;-77
2021/01/21 08:51:44;;;;;;;8.65;1.13;;;;;;;;;;5077685;22;20060;-78
2021/01/21 08:54:19;;;;;;;6.68;1.63;;;;;;;;;;5011612;28;20053;-78
2021/01/21 08:57:05;;;;;;;8.10;1.33;;;;;;;;;;5054654;28;20040;-78
2021/01/21 08:59:32;;;;;;;8.35;1.15;;;;;;;;;;5058232;28;20532;-77
2021/01/21 09:02:00;;;;;;;7.38;1.83;;;;;;;;;;5071248;28;20017;-78
2021/01/21 09:04:28;;;;;;;7.05;1.40;;;;;;;;;;5070709;28;20054;-78
2021/01/21 09:06:56;;;;;;;6.40;0.98;;;;;;;;;;5073234;28;20023;-77
2021/01/21 09:09:36;;;;;;;7.63;1.52;;;;;;;;;;5073156;28;20480;-78
2021/01/21 09:12:16;;;;;;;7.20;1.23;;;;;;;;;;5072769;28;20025;-77
2021/01/21 09:14:43;;;;;;;9.27;1.90;;;;;;;;;;5068836;28;20040;-78
2021/01/21 09:17:15;;;;;;;13.27;1.35;;;;;;;;;;5072868;28;20027;-77
2021/01/21 09:19:43;;;;;;;9.75;1.40;;;;;;;;;;5044830;28;20025;-77
2021/01/21 09:22:17;;;;;;;10.40;1.73;;;;;;;;;;5072952;28;20025;-78
2021/01/21 09:25:03;;;;;;;8.10;1.38;;;;;;;;;;5059434;22;20048;-77
2021/01/21 09:27:34;;;;;;;9.70;1.33;;;;;;;;;;5052090;28;20055;-77
2021/01/21 09:30:05;;;;;;;13.85;2.63;;;;;;;;;;5043150;28;20486;-77
2021/01/21 09:32:34;;;;;;;9.40;1.60;;;;;;;;;;5037507;28;20033;-76
2021/01/21 09:35:07;;;;;;;10.70;2.17;;;;;;;;;;5048468;28;20050;-77
2021/01/21 09:37:35;;;;;;;9.77;1.33;;;;;;;;;;5053334;28;20025;-77
2021/01/21 09:40:04;;;;;;;11.15;1.42;;;;;;;;;;5048257;28;20075;-77
2021/01/21 09:42:31;;;;;;;9.07;1.95;;;;;;;;;;5031499;28;20056;-77
2021/01/21 09:44:59;;;;;;;10.52;2.22;;;;;;;;;;5032549;28;20116;-77
2021/01/21 09:47:27;;;;;;;15.02;1.83;;;;;;;;;;5033003;28;20351;-77
2021/01/21 09:49:54;;;;;;;11.60;1.40;;;;;;;;;;5034491;28;20505;-77
2021/01/21 09:52:21;;;;;;;13.68;2.35;;;;;;;;;;5039732;28;20022;-77
2021/01/21 09:54:49;;;;;;;8.82;1.27;;;;;;;;;;5037101;28;20033;-77
2021/01/21 09:57:16;;;;;;;11.73;1.98;;;;;;;;;;5052671;28;20036;-76
2021/01/21 09:59:43;;;;;;;13.48;1.95;;;;;;;;;;5043842;28;20540;-78
2021/01/21 10:02:10;;;;;;;11.52;1.45;;;;;;;;;;5032866;28;20022;-77
2021/01/21 10:04:40;;;;;;;7.65;1.20;;;;;;;;;;5032210;28;20046;-77
2021/01/21 10:07:08;;;;;;;9.07;1.35;;;;;;;;;;5032955;28;20544;-78
2021/01/21 10:09:35;;;;;;;12.65;1.63;;;;;;;;;;5032588;28;20032;-78
2021/01/21 10:12:03;;;;;;;7.90;1.48;;;;;;;;;;5050933;28;20021;-77
2021/01/21 10:14:30;;;;;;;16.25;2.40;;;;;;;;;;5032482;28;20486;-77
2021/01/21 10:16:57;;;;;;;11.95;1.80;;;;;;;;;;5032945;28;20072;-77
2021/01/21 10:19:25;;;;;;;22.25;2.00;;;;;;;;;;5045798;28;20536;-77
2021/01/21 10:21:52;;;;;;;12.68;2.42;;;;;;;;;;5042134;28;20044;-77
2021/01/21 10:24:21;;;;;;;12.63;1.70;;;;;;;;;;5072396;22;20044;-77
2021/01/21 10:26:48;;;;;;;11.18;1.80;;;;;;;;;;5061251;22;20509;-77
2021/01/21 10:29:15;;;;;;;12.23;1.70;;;;;;;;;;5066630;28;20134;-77
2021/01/21 10:31:43;;;;;;;12.57;2.13;;;;;;;;;;5084974;22;20573;-77
2021/01/21 10:34:10;;;;;;;11.52;1.63;;;;;;;;;;5051709;28;20082;-77
2021/01/21 10:36:37;;;;;;;15.45;1.70;;;;;;;;;;5050680;28;20393;-77
2021/01/21 10:39:05;;;;;;;8.73;1.77;;;;;;;;;;5028550;28;20159;-77
2021/01/21 10:41:32;;;;;;;6.15;1.17;;;;;;;;;;5057539;22;20309;-77
2021/01/21 10:44:00;;;;;;;11.57;1.90;;;;;;;;;;5050804;28;20428;-77
2021/01/21 10:46:27;;;;;;;11.52;2.05;;;;;;;;;;5049937;28;20032;-77
2021/01/21 10:48:54;;;;;;;14.90;2.28;;;;;;;;;;5051425;28;20025;-77
2021/01/21 10:51:21;;;;;;;12.45;1.38;;;;;;;;;;5043040;28;20017;-77
2021/01/21 10:53:48;;;;;;;12.93;2.10;;;;;;;;;;5031526;28;20547;-77
2021/01/21 10:56:21;;;;;;;12.18;1.85;;;;;;;;;;5030565;28;20034;-77
2021/01/21 10:58:48;;;;;;;10.52;1.90;;;;;;;;;;5099803;22;20500;-77
2021/01/21 11:01:15;;;;;;;11.23;1.55;;;;;;;;;;5065695;28;20435;-77
2021/01/21 11:03:42;;;;;;;9.75;2.28;;;;;;;;;;5064947;28;20039;-77
2021/01/21 11:06:10;;;;;;;12.98;1.83;;;;;;;;;;5092511;28;20036;-77
2021/01/21 11:08:37;;;;;;;15.73;2.20;;;;;;;;;;5080241;28;20384;-77
2021/01/21 11:11:04;;;;;;;13.75;2.15;;;;;;;;;;5098101;28;20020;-77
2021/01/21 11:13:32;;;;;;;14.88;3.08;;;;;;;;;;5090980;28;20138;-77
2021/01/21 11:15:59;;;;;;;15.18;2.60;;;;;;;;;;5096855;28;20047;-77
2021/01/21 11:18:26;;;;;;;11.75;2.13;;;;;;;;;;5089856;28;20062;-77
2021/01/21 11:20:54;;;;;;;13.82;2.40;;;;;;;;;;5097397;28;20022;-77
2021/01/21 11:23:21;;;;;;;18.45;2.58;;;;;;;;;;5098441;28;20031;-77
2021/01/21 11:25:48;;;;;;;11.95;2.88;;;;;;;;;;5082833;28;20029;-77
2021/01/21 11:28:20;;;;;;;16.10;3.38;;;;;;;;;;5093426;28;20438;-78
2021/01/21 11:30:48;;;;;;;20.40;3.00;;;;;;;;;;5112716;22;20399;-77
2021/01/21 11:33:15;;;;;;;14.32;2.35;;;;;;;;;;5107531;28;20111;-77
2021/01/21 11:35:43;;;;;;;12.60;2.20;;;;;;;;;;5116678;28;20546;-77
2021/01/21 11:38:10;;;;;;;13.57;3.03;;;;;;;;;;5117891;28;20503;-77
2021/01/21 11:40:37;;;;;;;13.98;2.63;;;;;;;;;;5100837;28;20020;-77
2021/01/21 11:43:04;;;;;;;17.90;2.92;;;;;;;;;;5097794;28;20095;-77
2021/01/21 11:45:31;;;;;;;12.40;2.38;;;;;;;;;;5094528;28;20090;-77
2021/01/21 11:47:58;;;;;;;18.30;2.97;;;;;;;;;;5093810;28;20028;-77
2021/01/21 11:50:25;;;;;;;10.80;2.55;;;;;;;;;;5097378;28;20840;-77
2021/01/21 11:52:52;;;;;;;12.25;2.83;;;;;;;;;;5095809;28;20058;-77
2021/01/21 11:55:19;;;;;;;11.18;2.45;;;;;;;;;;5096652;28;20099;-77
2021/01/21 11:57:46;;;;;;;14.98;2.67;;;;;;;;;;5097622;28;20034;-77
2021/01/21 12:00:14;;;;;;;17.52;3.10;;;;;;;;;;5097296;28;20040;-77
2021/01/21 12:02:42;;;;;;;8.60;2.17;;;;;;;;;;5097538;28;20111;-77
2021/01/21 12:05:10;;;;;;;15.13;2.65;;;;;;;;;;5095560;28;20043;-77
2021/01/21 12:07:37;;;;;;;15.60;2.80;;;;;;;;;;5097856;28;20028;-77
2021/01/21 12:10:05;;;;;;;12.07;3.08;;;;;;;;;;5097905;28;20024;-77
2021/01/21 12:12:32;;;;;;;23.13;4.28;;;;;;;;;;5098105;28;20077;-77
2021/01/21 12:14:59;;;;;;;14.55;3.22;;;;;;;;;;5096149;28;20522;-77
2021/01/21 12:17:26;;;;;;;11.55;3.33;;;;;;;;;;5093460;28;20069;-77
2021/01/21 12:19:53;;;;;;;15.45;3.55;;;;;;;;;;5093384;28;20383;-77
2021/01/21 12:22:21;;;;;;;12.63;3.13;;;;;;;;;;5094919;28;20024;-76
2021/01/21 12:24:48;;;;;;;16.92;3.50;;;;;;;;;;5093912;28;20043;-77
2021/01/21 12:27:16;;;;;;;19.13;3.20;;;;;;;;;;5094344;28;20085;-77
2021/01/21 12:29:43;;;;;;;18.15;2.78;;;;;;;;;;5079979;28;20032;-77
2021/01/21 12:32:10;;;;;;;15.10;3.60;;;;;;;;;;5099507;22;20037;-76
2021/01/21 12:34:37;;;;;;;13.35;2.40;;;;;;;;;;5067166;22;20052;-77
2021/01/21 12:37:04;;;;;;;15.27;3.17;;;;;;;;;;5093489;28;20057;-77
2021/01/21 12:39:31;;;;;;;20.95;3.47;;;;;;;;;;5073994;22;20575;-77
2021/01/21 12:41:58;;;;;;;15.70;3.30;;;;;;;;;;5032843;28;20033;-77
2021/01/21 12:44:25;;;;;;;16.70;3.38;;;;;;;;;;5038859;28;20033;-78
2021/01/21 12:46:52;;;;;;;21.35;3.03;;;;;;;;;;5052036;28;20098;-77
2021/01/21 12:49:20;;;;;;;16.02;3.55;;;;;;;;;;5089691;22;20060;-77
2021/01/21 12:51:47;;;;;;;17.23;4.60;;;;;;;;;;5074260;28;20424;-77
2021/01/21 12:54:14;;;;;;;18.23;3.60;;;;;;;;;;5076010;28;20032;-77
2021/01/21 12:56:41;;;;;;;18.48;4.28;;;;;;;;;;5089463;28;20028;-77
2021/01/21 12:59:08;;;;;;;17.98;4.25;;;;;;;;;;5079520;28;20047;-77
2021/01/21 13:01:37;;;;;;;20.98;4.38;;;;;;;;;;5089229;28;20505;-77
2021/01/21 13:04:04;;;;;;;21.63;4.28;;;;;;;;;;5093171;22;20473;-77
2021/01/21 13:06:31;;;;;;;23.40;4.60;;;;;;;;;;5113691;28;20077;-77
2021/01/21 13:08:58;;;;;;;24.95;4.95;;;;;;;;;;5107858;28;20036;-76
2021/01/21 13:11:26;;;;;;;18.25;4.07;;;;;;;;;;5069502;28;20024;-76
2021/01/21 13:13:53;;;;;;;20.90;4.10;;;;;;;;;;5060930;28;20029;-77
2021/01/21 13:16:20;;;;;;;22.83;4.68;;;;;;;;;;5073905;28;20554;-77
2021/01/21 13:18:47;;;;;;;19.77;3.72;;;;;;;;;;5086321;28;20111;-77
2021/01/21 13:21:14;;;;;;;19.20;4.20;;;;;;;;;;5091251;28;20031;-77
2021/01/21 13:23:41;;;;;;;23.55;4.93;;;;;;;;;;5072537;28;20056;-77
2021/01/21 13:26:08;;;;;;;22.98;4.65;;;;;;;;;;5086818;28;20036;-77
2021/01/21 13:28:35;;;;;;;22.05;4.50;;;;;;;;;;5088111;28;20096;-77
2021/01/21 13:31:02;;;;;;;19.52;4.03;;;;;;;;;;5076523;28;20028;-77
2021/01/21 13:33:30;;;;;;;26.95;5.75;;;;;;;;;;5084650;28;20025;-77
2021/01/21 13:35:57;;;;;;;20.90;3.95;;;;;;;;;;5086643;28;20508;-77
2021/01/21 13:38:24;;;;;;;20.48;3.67;;;;;;;;;;5100800;22;20055;-77
2021/01/21 13:40:51;;;;;;;22.27;4.63;;;;;;;;;;5092394;28;20042;-77
2021/01/21 13:43:18;;;;;;;20.02;3.28;;;;;;;;;;5072827;28;20016;-77
2021/01/21 13:45:45;;;;;;;19.65;4.00;;;;;;;;;;5073443;28;20036;-77
2021/01/21 13:48:12;;;;;;;19.05;3.47;;;;;;;;;;5084018;28;20027;-77
2021/01/21 13:50:39;;;;;;;21.23;4.65;;;;;;;;;;5074122;28;20013;-77
2021/01/21 13:53:06;;;;;;;23.65;5.05;;;;;;;;;;5073065;28;20078;-77
2021/01/21 13:55:34;;;;;;;24.05;4.78;;;;;;;;;;5085249;28;20081;-77
2021/01/21 13:58:01;;;;;;;26.75;5.07;;;;;;;;;;5092797;28;20519;-77
2021/01/21 14:00:28;;;;;;;21.65;4.80;;;;;;;;;;5079090;28;20025;-76
2021/01/21 14:02:55;;;;;;;15.57;3.40;;;;;;;;;;5059563;28;20409;-77
2021/01/21 14:05:22;;;;;;;16.20;3.92;;;;;;;;;;5072490;28;20123;-76
2021/01/21 14:07:49;;;;;;;17.85;4.05;;;;;;;;;;5067045;28;20538;-77
2021/01/21 14:10:16;;;;;;;17.83;4.18;;;;;;;;;;5086984;28;20111;-77
2021/01/21 14:12:43;;;;;;;13.65;3.40;;;;;;;;;;5091556;28;20024;-76
2021/01/21 14:15:11;;;;;;;22.58;3.42;;;;;;;;;;5091562;28;20036;-77
2021/01/21 14:17:38;;;;;;;17.88;4.78;;;;;;;;;;5082866;28;20020;-76
2021/01/21 14:20:05;;;;;;;21.90;4.18;;;;;;;;;;5075021;28;20025;-76
2021/01/21 14:22:32;;;;;;;19.33;4.47;;;;;;;;;;5071621;28;20025;-77
2021/01/21 14:25:00;;;;;;;16.85;4.22;;;;;;;;;;5070973;28;20119;-77
2021/01/21 14:27:27;;;;;;;18.23;3.45;;;;;;;;;;5072213;28;20366;-77
2021/01/21 14:29:54;;;;;;;17.88;3.13;;;;;;;;;;5078524;28;20392;-77
2021/01/21 14:32:21;;;;;;;17.23;3.42;;;;;;;;;;5067711;28;20194;-77
2021/01/21 14:34:48;;;;;;;16.55;4.35;;;;;;;;;;5074504;28;20539;-77
2021/01/21 14:37:15;;;;;;;15.82;2.70;;;;;;;;;;5071598;28;20060;-77
2021/01/21 14:39:42;;;;;;;14.23;2.78;;;;;;;;;;5108023;22;20053;-77
2021/01/21 14:42:09;;;;;;;11.75;3.08;;;;;;;;;;5063516;22;20083;-77
2021/01/21 14:44:39;;;;;;;16.42;3.30;;;;;;;;;;5044902;28;20038;-77
2021/01/21 14:47:06;;;;;;;14.93;3.20;;;;;;;;;;5071456;22;20139;-77